createdAt,value
2022-08-19T00:02:12.343Z,101302.44
2022-08-19T00:04:43.527Z,101292.75
2022-08-19T00:07:11.846Z,101303.13
2022-08-19T00:09:43.007Z,101304.13
2022-08-19T00:12:11.749Z,101301.44
2022-08-19T00:14:41.072Z,101302.25
2022-08-19T00:17:12.719Z,101307.84
2022-08-19T00:19:42.490Z,101310.94
2022-08-19T00:22:10.996Z,101317.38
2022-08-19T00:24:40.747Z,101312.13
2022-08-19T00:27:25.670Z,101320.09
2022-08-19T00:29:55.025Z,101309.25
2022-08-19T00:32:40.973Z,101319.06
2022-08-19T00:35:09.961Z,101314.84
2022-08-19T00:37:38.458Z,101316.34
2022-08-19T00:40:12.276Z,101312.97
2022-08-19T00:42:41.004Z,101315.50
2022-08-19T00:45:18.859Z,101307.69
2022-08-19T00:47:48.012Z,101326.53
2022-08-19T00:50:20.103Z,101325.84
2022-08-19T00:52:52.752Z,101318.88
2022-08-19T00:55:31.588Z,101324.66
2022-08-19T00:58:10.661Z,101316.88
2022-08-19T01:00:39.776Z,101312.63
2022-08-19T01:03:14.294Z,101309.09
2022-08-19T01:05:45.315Z,101309.91
2022-08-19T01:08:15.773Z,101295.34
2022-08-19T01:10:54.371Z,101300.59
2022-08-19T01:13:26.089Z,101300.59
2022-08-19T01:16:01.344Z,101301.63
2022-08-19T01:18:33.453Z,101300.78
2022-08-19T01:21:49.420Z,101293.31
2022-08-19T01:24:18.568Z,101288.91
2022-08-19T01:26:54.582Z,101298.72
2022-08-19T01:29:49.802Z,101292.47
2022-08-19T01:34:48.888Z,101296.00
2022-08-19T01:37:26.988Z,101287.03
2022-08-19T01:40:58.136Z,101287.88
2022-08-19T01:44:17.561Z,101288.91
2022-08-19T01:47:01.375Z,101284.69
2022-08-19T01:49:52.782Z,101290.63
2022-08-19T01:52:47.961Z,101296.41
2022-08-19T01:59:04.541Z,101298.09
2022-08-19T02:01:52.110Z,101297.41
2022-08-19T02:07:56.272Z,101303.88
2022-08-19T02:10:57.063Z,101312.69
2022-08-19T02:14:23.800Z,101312.00
2022-08-19T02:16:57.472Z,101313.34
2022-08-19T02:19:51.796Z,101312.69
2022-08-19T02:22:48.009Z,101314.91
2022-08-19T02:28:27.034Z,101312.81
2022-08-19T02:31:24.325Z,101313.50
2022-08-19T02:34:01.800Z,101316.72
2022-08-19T02:36:53.693Z,101312.81
2022-08-19T02:39:32.405Z,101309.25
2022-08-19T02:45:52.985Z,101316.53
2022-08-19T02:48:51.047Z,101320.75
2022-08-19T02:54:48.499Z,101322.09
2022-08-19T02:57:49.836Z,101314.28
2022-08-19T03:00:25.569Z,101322.72
2022-08-19T03:02:54.500Z,101328.31
2022-08-19T03:05:25.245Z,101324.38
2022-08-19T03:08:20.228Z,101329.13
2022-08-19T03:10:50.362Z,101323.00
2022-08-19T03:13:22.116Z,101327.72
2022-08-19T03:15:51.124Z,101337.00
2022-08-19T03:18:23.119Z,101336.50
2022-08-19T03:20:54.686Z,101343.09
2022-08-19T03:23:32.602Z,101346.81
2022-08-19T03:26:16.125Z,101351.53
2022-08-19T03:28:57.990Z,101349.16
2022-08-19T03:34:34.944Z,101352.56
2022-08-19T03:40:03.238Z,101356.31
2022-08-19T03:42:58.552Z,101358.16
2022-08-19T03:45:38.547Z,101354.06
2022-08-19T03:48:19.105Z,101353.50
2022-08-19T03:50:56.702Z,101350.59
2022-08-19T03:56:31.343Z,101353.97
2022-08-19T03:59:04.230Z,101350.59
2022-08-19T04:02:01.395Z,101357.69
2022-08-19T04:04:53.550Z,101367.81
2022-08-19T04:07:21.894Z,101367.97
2022-08-19T04:13:04.466Z,101373.75
2022-08-19T04:16:22.127Z,101376.03
2022-08-19T04:19:29.337Z,101371.66
2022-08-19T04:22:01.017Z,101373.91
2022-08-19T04:24:29.473Z,101379.53
2022-08-19T04:29:35.858Z,101372.53
2022-08-19T04:32:09.264Z,101377.00
2022-08-19T04:35:27.260Z,101368.19
2022-08-19T04:37:58.546Z,101374.03
2022-08-19T04:40:45.184Z,101369.25
2022-08-19T04:43:24.982Z,101370.69
2022-08-19T04:46:00.843Z,101363.06
2022-08-19T04:48:52.641Z,101364.50
2022-08-19T04:51:26.667Z,101364.97
2022-08-19T04:53:58.545Z,101370.97
2022-08-19T04:56:28.359Z,101367.03
2022-08-19T04:59:00.034Z,101373.84
2022-08-19T05:01:54.891Z,101363.38
2022-08-19T05:07:25.837Z,101358.84
2022-08-19T05:09:59.854Z,101360.84
2022-08-19T05:12:30.636Z,101354.78
2022-08-19T05:18:28.921Z,101357.94
2022-08-19T05:21:24.026Z,101356.38
2022-08-19T05:24:28.550Z,101347.31
2022-08-19T05:28:25.910Z,101351.44
2022-08-19T05:31:24.925Z,101353.28
2022-08-19T05:34:30.211Z,101342.94
2022-08-19T05:37:29.537Z,101355.28
2022-08-19T05:40:54.937Z,101349.50
2022-08-19T05:43:25.913Z,101346.78
2022-08-19T05:49:29.854Z,101343.53
2022-08-19T05:57:46.272Z,101344.50
2022-08-19T06:00:28.764Z,101343.22
2022-08-19T06:06:25.881Z,101339.69
2022-08-19T06:08:56.353Z,101337.25
2022-08-19T06:14:37.565Z,101328.06
2022-08-19T06:16:57.990Z,101335.13
2022-08-19T06:19:25.916Z,101336.25
2022-08-19T06:27:35.159Z,101333.03
2022-08-19T06:30:30.955Z,101340.78
2022-08-19T06:32:59.725Z,101337.81
2022-08-19T06:35:31.447Z,101345.16
2022-08-19T06:38:02.684Z,101349.84
2022-08-19T06:40:31.019Z,101340.81
2022-08-19T06:43:01.717Z,101344.19
2022-08-19T06:45:34.836Z,101340.81
2022-08-19T06:48:25.703Z,101343.19
2022-08-19T06:50:57.736Z,101343.47
2022-08-19T06:53:29.874Z,101340.19
2022-08-19T06:56:39.674Z,101341.47
2022-08-19T06:58:56.788Z,101342.47
2022-08-19T07:01:27.736Z,101332.13
2022-08-19T07:03:56.054Z,101339.47
2022-08-19T07:06:44.903Z,101334.50
2022-08-19T07:10:26.256Z,101333.06
2022-08-19T07:12:57.537Z,101334.97
2022-08-19T07:15:31.392Z,101333.81
2022-08-19T07:18:00.022Z,101334.22
2022-08-19T07:20:29.561Z,101340.28
2022-08-19T07:23:01.028Z,101339.84
2022-08-19T07:25:34.968Z,101343.19
2022-08-19T07:28:03.233Z,101341.75
2022-08-19T07:30:32.124Z,101338.75
2022-08-19T07:33:03.353Z,101342.56
2022-08-19T07:35:33.997Z,101342.09
2022-08-19T07:41:28.113Z,101347.56
2022-08-19T07:44:05.614Z,101346.97
2022-08-19T07:46:35.145Z,101350.63
2022-08-19T07:49:04.237Z,101351.75
2022-08-19T07:51:36.840Z,101349.31
2022-08-19T07:54:29.356Z,101347.88
2022-08-19T07:57:00.755Z,101341.81
2022-08-19T07:59:30.408Z,101345.72
2022-08-19T08:02:01.401Z,101339.00
2022-08-19T08:04:58.089Z,101336.97
2022-08-19T08:11:29.551Z,101332.66
2022-08-19T08:14:00.881Z,101323.03
2022-08-19T08:17:01.374Z,101329.50
2022-08-19T08:20:03.191Z,101319.28
2022-08-19T08:23:00.887Z,101319.81
2022-08-19T08:25:59.858Z,101309.56
2022-08-19T08:29:01.825Z,101308.84
2022-08-19T08:35:00.943Z,101304.72
2022-08-19T08:38:01.776Z,101310.59
2022-08-19T08:59:58.374Z,101298.00
2022-08-19T09:02:59.298Z,101298.25
2022-08-19T09:06:05.287Z,101293.84
2022-08-19T09:09:12.134Z,101296.78
2022-08-19T09:12:05.692Z,101299.25
2022-08-19T09:15:00.920Z,101298.75
2022-08-19T09:18:08.278Z,101297.03
2022-08-19T09:21:00.268Z,101295.31
2022-08-19T09:23:29.097Z,101301.66
2022-08-19T09:28:59.955Z,101294.34
2022-08-19T09:31:59.509Z,101297.88
2022-08-19T09:34:28.044Z,101284.72
2022-08-19T09:37:02.058Z,101283.13
2022-08-19T09:42:30.245Z,101281.22
2022-08-19T09:45:19.930Z,101278.66
2022-08-19T09:48:00.474Z,101283.19
2022-08-19T09:50:30.485Z,101277.19
2022-08-19T09:56:14.416Z,101274.63
2022-08-19T10:07:36.040Z,101283.31
2022-08-19T10:11:28.692Z,101279.75
2022-08-19T10:14:03.485Z,101286.25
2022-08-19T10:22:06.158Z,101280.13
2022-08-19T10:25:02.828Z,101281.22
2022-08-19T10:31:06.685Z,101276.13
2022-08-19T10:34:02.759Z,101280.50
2022-08-19T10:36:55.851Z,101279.53
2022-08-19T10:40:01.426Z,101278.78
2022-08-19T10:43:03.038Z,101272.59
2022-08-19T10:46:01.104Z,101264.56
2022-08-19T10:55:05.252Z,101263.09
2022-08-19T10:58:02.564Z,101260.66
2022-08-19T11:12:09.353Z,101261.25
2022-08-19T11:15:00.828Z,101262.97
2022-08-19T11:20:32.462Z,101261.63
2022-08-19T11:23:04.446Z,101269.28
2022-08-19T11:25:33.377Z,101269.53
2022-08-19T11:28:01.630Z,101270.13
2022-08-19T11:30:32.348Z,101268.31
2022-08-19T11:33:02.890Z,101272.94
2022-08-19T11:35:31.336Z,101266.59
2022-08-19T11:38:05.426Z,101265.38
2022-08-19T11:40:52.734Z,101262.56
2022-08-19T11:46:17.742Z,101265.97
2022-08-19T11:49:05.637Z,101261.81
2022-08-19T11:51:34.331Z,101254.41
2022-08-19T11:54:03.437Z,101255.63
2022-08-19T11:56:31.877Z,101259.19
2022-08-19T11:59:04.436Z,101263.81
2022-08-19T12:01:33.265Z,101259.06
2022-08-19T12:04:02.249Z,101264.69
2022-08-19T12:09:33.724Z,101256.63
2022-08-19T12:12:04.022Z,101261.88
2022-08-19T12:14:32.776Z,101263.72
2022-08-19T12:17:02.290Z,101260.78
2022-08-19T12:19:30.650Z,101261.25
2022-08-19T12:22:07.465Z,101256.97
2022-08-19T12:24:38.051Z,101253.78
2022-08-19T12:27:06.512Z,101264.03
2022-08-19T12:30:02.217Z,101259.00
2022-08-19T12:32:33.077Z,101263.41
2022-08-19T12:35:01.278Z,101263.78
2022-08-19T12:37:29.569Z,101261.47
2022-08-19T12:39:57.940Z,101267.31
2022-08-19T12:42:26.587Z,101267.81
2022-08-19T12:44:55.037Z,101264.94
2022-08-19T12:47:23.846Z,101265.41
2022-08-19T12:49:55.686Z,101259.44
2022-08-19T12:52:29.454Z,101255.19
2022-08-19T12:54:59.044Z,101258.56
2022-08-19T12:57:33.527Z,101259.78
2022-08-19T13:00:10.021Z,101254.91
2022-08-19T13:02:39.273Z,101258.69
2022-08-19T13:05:10.492Z,101261.88
2022-08-19T13:07:40.443Z,101259.69
2022-08-19T13:10:10.940Z,101259.31
2022-08-19T13:12:39.973Z,101264.22
2022-08-19T13:15:11.362Z,101264.22
2022-08-19T13:17:41.048Z,101259.81
2022-08-19T13:20:13.157Z,101258.34
2022-08-19T13:22:46.348Z,101263.44
2022-08-19T13:25:15.420Z,101263.47
2022-08-19T13:27:43.678Z,101270.28
2022-08-19T13:30:32.958Z,101270.72
2022-08-19T13:33:15.981Z,101270.09
2022-08-19T13:35:50.995Z,101268.63
2022-08-19T13:38:23.331Z,101264.22
2022-08-19T13:40:54.408Z,101270.47
2022-08-19T13:43:25.200Z,101271.53
2022-08-19T13:45:57.569Z,101265.56
2022-08-19T13:48:28.434Z,101271.38
2022-08-19T13:50:59.225Z,101275.63
2022-08-19T13:53:29.733Z,101279.50
2022-08-19T13:55:58.071Z,101280.50
2022-08-19T13:58:26.471Z,101288.97
2022-08-19T14:00:54.833Z,101294.66
2022-08-19T14:03:23.445Z,101290.41
2022-08-19T14:05:51.823Z,101288.94
2022-08-19T14:08:20.509Z,101291.94
2022-08-19T14:10:49.113Z,101288.31
2022-08-19T14:13:20.928Z,101286.38
2022-08-19T14:15:52.674Z,101288.94
2022-08-19T14:18:21.216Z,101290.00
2022-08-19T14:20:51.070Z,101294.59
2022-08-19T14:23:19.466Z,101292.94
2022-08-19T14:25:48.352Z,101286.81
2022-08-19T14:28:16.719Z,101292.16
2022-08-19T14:30:46.385Z,101294.84
2022-08-19T14:33:15.728Z,101304.56
2022-08-19T14:35:49.455Z,101300.19
2022-08-19T14:38:28.104Z,101304.69
2022-08-19T14:41:24.844Z,101292.16
2022-08-19T14:43:55.010Z,101293.28
2022-08-19T14:46:29.491Z,101299.06
2022-08-19T14:48:59.986Z,101302.50
2022-08-19T14:51:29.011Z,101301.41
2022-08-19T14:53:57.491Z,101298.75
2022-08-19T14:56:32.920Z,101293.38
2022-08-19T14:59:02.796Z,101296.91
2022-08-19T15:01:31.177Z,101306.75
2022-08-19T15:03:59.534Z,101308.44
2022-08-19T15:06:27.951Z,101306.22
2022-08-19T15:09:00.644Z,101325.13
2022-08-19T15:11:34.152Z,101315.44
2022-08-19T15:14:03.394Z,101321.22
2022-08-19T15:16:31.717Z,101320.38
2022-08-19T15:19:01.573Z,101322.81
2022-08-19T15:21:31.718Z,101322.69
2022-08-19T15:24:02.738Z,101323.66
2022-08-19T15:26:33.873Z,101326.88
2022-08-19T15:29:03.470Z,101324.81
2022-08-19T15:31:35.993Z,101324.81
2022-08-19T15:34:08.234Z,101322.13
2022-08-19T15:36:37.853Z,101329.31
2022-08-19T15:39:08.100Z,101327.81
2022-08-19T15:41:37.242Z,101329.66
2022-08-19T15:44:11.394Z,101333.59
2022-08-19T15:46:42.564Z,101334.53
2022-08-19T15:49:12.458Z,101338.09
2022-08-19T15:51:43.792Z,101334.66
2022-08-19T15:54:12.796Z,101331.03
2022-08-19T15:56:59.473Z,101334.53
2022-08-19T15:59:47.770Z,101328.25
2022-08-19T16:02:39.145Z,101335.41
2022-08-19T16:05:29.451Z,101327.91
2022-08-19T16:07:57.811Z,101325.94
2022-08-19T16:10:28.041Z,101325.66
2022-08-19T16:13:00.829Z,101322.75
2022-08-19T16:15:31.397Z,101324.34
2022-08-19T16:18:00.389Z,101320.78
2022-08-19T16:20:33.377Z,101326.38
2022-08-19T16:23:05.770Z,101319.19
2022-08-19T16:25:34.174Z,101321.03
2022-08-19T16:28:07.124Z,101323.94
2022-08-19T16:30:39.637Z,101317.63
2022-08-19T16:33:08.384Z,101314.72
2022-08-19T16:35:36.979Z,101315.34
2022-08-19T16:38:05.563Z,101308.19
2022-08-19T16:40:35.041Z,101301.41
2022-08-19T16:43:03.733Z,101296.66
2022-08-19T16:45:32.401Z,101295.47
2022-08-19T16:48:00.715Z,101299.00
2022-08-19T16:50:48.238Z,101294.28
2022-08-19T16:53:23.739Z,101298.22
2022-08-19T16:56:03.449Z,101306.00
2022-08-19T16:58:39.226Z,101306.13
2022-08-19T17:01:10.932Z,101296.22
2022-08-19T17:03:40.917Z,101302.69
2022-08-19T17:06:20.276Z,101298.50
2022-08-19T17:08:53.789Z,101297.66
2022-08-19T17:11:28.087Z,101297.31
2022-08-19T17:14:02.293Z,101293.44
2022-08-19T17:16:33.688Z,101286.59
2022-08-19T17:19:05.393Z,101291.44
2022-08-19T17:21:36.246Z,101280.72
2022-08-19T17:24:07.631Z,101287.91
2022-08-19T17:26:37.599Z,101281.22
2022-08-19T17:29:09.339Z,101283.13
2022-08-19T17:31:38.036Z,101281.13
2022-08-19T17:34:12.588Z,101279.00
2022-08-19T17:36:43.448Z,101287.59
2022-08-19T17:39:11.816Z,101291.34
2022-08-19T17:41:40.348Z,101285.56
2022-08-19T17:44:08.711Z,101282.84
2022-08-19T17:46:38.053Z,101279.09
2022-08-19T17:49:06.880Z,101275.13
2022-08-19T17:51:35.199Z,101280.38
2022-08-19T17:56:56.845Z,101281.19
2022-08-19T17:59:34.517Z,101266.69
2022-08-19T18:02:06.427Z,101272.94
2022-08-19T18:04:34.974Z,101281.56
2022-08-19T18:07:07.172Z,101272.41
2022-08-19T18:09:41.361Z,101265.16
2022-08-19T18:12:17.264Z,101273.81
2022-08-19T18:14:51.774Z,101271.13
2022-08-19T18:17:24.202Z,101273.53
2022-08-19T18:19:53.871Z,101260.53
2022-08-19T18:22:29.821Z,101259.41
2022-08-19T18:25:07.410Z,101258.41
2022-08-19T18:27:38.997Z,101248.41
2022-08-19T18:30:08.665Z,101247.03
2022-08-19T18:32:39.527Z,101247.44
2022-08-19T18:35:15.156Z,101260.63
2022-08-19T18:37:55.191Z,101248.44
2022-08-19T18:40:51.968Z,101241.94
2022-08-19T18:43:38.573Z,101243.22
2022-08-19T18:46:26.786Z,101228.19
2022-08-19T18:49:07.163Z,101226.03
2022-08-19T18:51:35.829Z,101233.13
2022-08-19T18:54:04.991Z,101215.69
2022-08-19T18:56:34.220Z,101210.13
2022-08-19T18:59:03.618Z,101206.38
2022-08-19T19:01:38.354Z,101205.50
2022-08-19T19:04:12.335Z,101201.94
2022-08-19T19:06:43.399Z,101201.50
2022-08-19T19:09:13.019Z,101191.66
2022-08-19T19:11:47.353Z,101188.88
2022-08-19T19:14:47.802Z,101183.13
2022-08-19T19:17:19.312Z,101181.72
2022-08-19T19:19:48.390Z,101187.34
2022-08-19T19:22:21.199Z,101187.44
2022-08-19T19:24:49.910Z,101185.81
2022-08-19T19:27:28.305Z,101188.03
2022-08-19T19:30:00.668Z,101185.81
2022-08-19T19:32:38.687Z,101178.41
2022-08-19T19:35:09.298Z,101172.69
2022-08-19T19:37:37.753Z,101166.41
2022-08-19T19:40:06.322Z,101171.69
2022-08-19T19:42:37.956Z,101161.53
2022-08-19T19:45:07.255Z,101155.16
2022-08-19T19:47:35.606Z,101151.81
2022-08-19T19:50:15.811Z,101147.13
2022-08-19T19:52:46.651Z,101149.69
2022-08-19T19:55:22.317Z,101152.25
2022-08-19T19:57:51.510Z,101136.19
2022-08-19T20:00:42.874Z,101146.84
2022-08-19T20:03:11.321Z,101142.56
2022-08-19T20:05:39.773Z,101135.19
2022-08-19T20:08:26.607Z,101134.03
2022-08-19T20:11:15.753Z,101125.44
2022-08-19T20:14:14.813Z,101114.91
2022-08-19T20:16:45.066Z,101117.97
2022-08-19T20:19:22.164Z,101109.69
2022-08-19T20:21:57.309Z,101111.41
2022-08-19T20:24:43.442Z,101108.22
2022-08-19T20:27:12.166Z,101098.78
2022-08-19T20:29:44.924Z,101104.19
2022-08-19T20:32:14.199Z,101100.16
2022-08-19T20:34:44.824Z,101098.78
2022-08-19T20:37:16.199Z,101105.84
2022-08-19T20:39:45.320Z,101098.25
2022-08-19T20:42:14.242Z,101101.31
2022-08-19T20:44:43.067Z,101100.16
2022-08-19T20:47:14.277Z,101095.59
2022-08-19T20:49:42.550Z,101094.91
2022-08-19T20:52:11.860Z,101091.69
2022-08-19T20:54:49.457Z,101087.81
2022-08-19T20:57:20.910Z,101085.63
2022-08-19T20:59:50.523Z,101081.41
2022-08-19T21:02:22.244Z,101088.56
2022-08-19T21:04:50.943Z,101069.81
2022-08-19T21:07:19.331Z,101072.72
2022-08-19T21:09:53.123Z,101065.28
2022-08-19T21:12:21.435Z,101062.97
2022-08-19T21:14:49.886Z,101076.50
2022-08-19T21:17:18.275Z,101068.16
2022-08-19T21:19:46.657Z,101065.44
2022-08-19T21:22:14.846Z,101070.34
2022-08-19T21:24:45.934Z,101061.63
2022-08-19T21:27:14.216Z,101053.50
2022-08-19T21:29:43.307Z,101049.13
2022-08-19T21:32:14.172Z,101059.44
2022-08-19T21:34:46.395Z,101048.47
2022-08-19T21:37:24.778Z,101053.38
2022-08-19T21:39:55.458Z,101046.59
2022-08-19T21:42:26.600Z,101041.19
2022-08-19T21:44:54.884Z,101035.44
2022-08-19T21:47:24.985Z,101036.47
2022-08-19T21:50:02.231Z,101027.84
2022-08-19T21:52:38.034Z,101026.66
2022-08-19T21:55:13.513Z,101017.34
2022-08-19T21:57:51.614Z,101023.59
2022-08-19T22:00:40.690Z,101011.41
2022-08-19T22:03:11.521Z,101010.41
2022-08-19T22:05:45.548Z,101012.75
2022-08-19T22:08:15.175Z,101005.13
2022-08-19T22:10:43.427Z,101001.56
2022-08-19T22:13:12.078Z,101000.84
2022-08-19T22:15:43.300Z,100995.75
2022-08-19T22:18:16.312Z,100993.03
2022-08-19T22:20:45.136Z,100998.44
2022-08-19T22:23:13.477Z,100985.94
2022-08-19T22:25:45.896Z,100981.38
2022-08-19T22:28:18.808Z,100979.00
2022-08-19T22:31:14.946Z,100971.72
2022-08-19T22:33:51.532Z,100967.53
2022-08-19T22:36:25.323Z,100964.97
2022-08-19T22:39:20.913Z,100966.47
2022-08-19T22:42:10.354Z,100968.34
2022-08-19T22:49:18.397Z,100960.06
2022-08-19T23:09:24.597Z,100941.03
2022-08-19T23:13:09.833Z,100935.13
2022-08-19T23:16:50.684Z,100932.63
2022-08-19T23:19:14.249Z,100927.88
2022-08-19T23:23:18.361Z,100926.88
2022-08-19T23:25:56.397Z,100918.41
2022-08-19T23:28:45.563Z,100916.25
2022-08-19T23:31:30.658Z,100916.41
2022-08-19T23:34:14.915Z,100918.44
2022-08-19T23:36:46.303Z,100904.06
2022-08-19T23:39:17.448Z,100904.75
2022-08-19T23:41:48.302Z,100910.00
2022-08-19T23:44:18.553Z,100904.91
2022-08-19T23:46:55.145Z,100906.78
2022-08-19T23:49:25.647Z,100906.13
2022-08-19T23:51:58.095Z,100903.06
2022-08-19T23:54:34.258Z,100898.84
2022-08-19T23:57:14.594Z,100893.78
2022-08-19T23:59:46.071Z,100892.28
